الصفحة الرئيسية
METAR-TAF:

METAR-TAF

مطار :

أوسكمان, كازاخستان

دائرة عرض: 50-02-10N, خط طول: 082-29-39E, ارتفاع: 286 متر

مراقبة الطقس الحالي

تاريخ ووقت الإصدار 17 دقيقة قبل الساعة 09:30UTC
ريح 2 عقدة من الشمال/الشمال الشرقي
درجة الحرارة -21°درجة مئوية
الرطوبة 77%
ضغط 1025 hPa
الرؤية: 5000 متر
غيوم متفرقة على ارتفاع 9600 قدم
غشاء

METAR: UASK 110930Z 02001MPS 5000 BR SCT096 M21/M24 Q1025 NOSIG RMK QFE743/0991

زمن: 15:47 (09:47 UTC)

توقعات

تاريخ ووقت الإصدار 1ساعة و 47 دقيقة قبل الساعة 08:00UTC
التوقعات صالحة من11 الساعة 09 UTC إلى 11 الساعة 18 UTC
ريح 6 عقدة من الشمال الغربي
الرؤية: 4000 متر
غيوم مفككة على ارتفاع 4000 قدم
غشاء
مؤقت
من 11 الساعة 09 UTC إلى 11 الساعة 15 UTC
ريح 8 عقدة من الشمال/الشمال الشرقي
الرؤية: 1000 متر
غيوم متفرقة على ارتفاع 400 قدم
غيوم مفككة على ارتفاع 2100 قدم
ثلوج خفيفة, غشاء,

TAF: UASK 110800Z 1109/1118 31003MPS 4000 BR BKN040 TEMPO 1109/1115 03004MPS 1000 -SN BR SCT004 BKN021

أرصاد الطقس والتوقعات من أكثر من 4000 مطار (تقارير الطقس للمطار METAR والتنبؤ بالطقس بالمطارTAF).

المحطات المتاحة هي النقط الصفراء والحمراء على الخريطة.

حرك المؤشر فوق النقطة لمعرفة اسم المحطة.

ثم انقر لمعرفة أرصاد وتوقعات الطقس.

لتغيير الخارطة: اضغط على الأزرار الخضراء مع رمز الصليب الأسود للتكبير. على الزر الأخضر مع شرطة للتصغير، أو على الأسهم الخضراء للخرائط المجاورة.


METAR-TAF: